sensor_id;sensor_type;location;lat;lon;timestamp;P1;durP1;ratioP1;P2;durP2;ratioP2
77520;SDS011;66633;47.628;19.158;2023-09-19T00:00:21;12.98;;;7.88;;
77520;SDS011;66633;47.628;19.158;2023-09-19T00:02:56;10.88;;;7.63;;
77520;SDS011;66633;47.628;19.158;2023-09-19T00:05:27;13.35;;;7.05;;
77520;SDS011;66633;47.628;19.158;2023-09-19T00:07:56;13.15;;;7.75;;
77520;SDS011;66633;47.628;19.158;2023-09-19T00:10:26;10.43;;;7.57;;
77520;SDS011;66633;47.628;19.158;2023-09-19T00:13:00;10.43;;;8.32;;
77520;SDS011;66633;47.628;19.158;2023-09-19T00:15:29;11.10;;;7.20;;
77520;SDS011;66633;47.628;19.158;2023-09-19T00:17:55;10.73;;;7.25;;
77520;SDS011;66633;47.628;19.158;2023-09-19T00:20:21;9.85;;;6.68;;
77520;SDS011;66633;47.628;19.158;2023-09-19T00:22:50;11.60;;;6.75;;
77520;SDS011;66633;47.628;19.158;2023-09-19T00:25:17;11.38;;;7.28;;
77520;SDS011;66633;47.628;19.158;2023-09-19T00:27:43;11.45;;;7.03;;
77520;SDS011;66633;47.628;19.158;2023-09-19T00:30:11;11.38;;;7.70;;
77520;SDS011;66633;47.628;19.158;2023-09-19T00:32:49;12.05;;;7.60;;
77520;SDS011;66633;47.628;19.158;2023-09-19T00:35:20;10.45;;;7.35;;
77520;SDS011;66633;47.628;19.158;2023-09-19T00:37:49;9.43;;;6.75;;
77520;SDS011;66633;47.628;19.158;2023-09-19T00:40:16;9.20;;;7.82;;
77520;SDS011;66633;47.628;19.158;2023-09-19T00:42:43;12.90;;;7.22;;
77520;SDS011;66633;47.628;19.158;2023-09-19T00:45:11;11.23;;;6.80;;
77520;SDS011;66633;47.628;19.158;2023-09-19T00:47:47;11.00;;;8.13;;
77520;SDS011;66633;47.628;19.158;2023-09-19T00:50:14;13.45;;;8.15;;
77520;SDS011;66633;47.628;19.158;2023-09-19T00:52:47;14.00;;;7.30;;
77520;SDS011;66633;47.628;19.158;2023-09-19T00:55:15;12.15;;;7.78;;
77520;SDS011;66633;47.628;19.158;2023-09-19T00:57:47;10.30;;;8.32;;
77520;SDS011;66633;47.628;19.158;2023-09-19T01:00:18;10.75;;;7.65;;
77520;SDS011;66633;47.628;19.158;2023-09-19T01:02:54;12.63;;;7.25;;
77520;SDS011;66633;47.628;19.158;2023-09-19T01:05:22;11.02;;;7.07;;
77520;SDS011;66633;47.628;19.158;2023-09-19T01:07:50;9.45;;;7.40;;
77520;SDS011;66633;47.628;19.158;2023-09-19T01:10:20;10.38;;;6.88;;
77520;SDS011;66633;47.628;19.158;2023-09-19T01:16:00;11.05;;;7.78;;
77520;SDS011;66633;47.628;19.158;2023-09-19T01:18:47;11.95;;;7.63;;
77520;SDS011;66633;47.628;19.158;2023-09-19T01:24:22;13.13;;;6.93;;
77520;SDS011;66633;47.628;19.158;2023-09-19T01:26:56;10.57;;;7.32;;
77520;SDS011;66633;47.628;19.158;2023-09-19T01:29:40;10.55;;;7.30;;
77520;SDS011;66633;47.628;19.158;2023-09-19T01:32:10;10.75;;;7.55;;
77520;SDS011;66633;47.628;19.158;2023-09-19T01:34:43;9.18;;;7.10;;
77520;SDS011;66633;47.628;19.158;2023-09-19T01:37:16;10.75;;;7.80;;
77520;SDS011;66633;47.628;19.158;2023-09-19T01:39:47;11.85;;;7.22;;
77520;SDS011;66633;47.628;19.158;2023-09-19T01:42:31;10.00;;;7.60;;
77520;SDS011;66633;47.628;19.158;2023-09-19T01:45:11;13.13;;;7.70;;
77520;SDS011;66633;47.628;19.158;2023-09-19T01:47:51;11.73;;;7.07;;
77520;SDS011;66633;47.628;19.158;2023-09-19T01:55:57;12.10;;;8.05;;
77520;SDS011;66633;47.628;19.158;2023-09-19T01:58:34;13.15;;;8.05;;
77520;SDS011;66633;47.628;19.158;2023-09-19T02:01:04;9.90;;;6.90;;
77520;SDS011;66633;47.628;19.158;2023-09-19T02:03:33;12.38;;;7.55;;
77520;SDS011;66633;47.628;19.158;2023-09-19T02:06:00;11.93;;;7.88;;
77520;SDS011;66633;47.628;19.158;2023-09-19T02:08:28;13.32;;;7.47;;
77520;SDS011;66633;47.628;19.158;2023-09-19T02:10:59;11.20;;;7.35;;
77520;SDS011;66633;47.628;19.158;2023-09-19T02:13:25;10.90;;;7.20;;
77520;SDS011;66633;47.628;19.158;2023-09-19T02:15:52;10.77;;;7.15;;
77520;SDS011;66633;47.628;19.158;2023-09-19T02:18:19;12.18;;;7.15;;
77520;SDS011;66633;47.628;19.158;2023-09-19T02:20:45;11.27;;;7.47;;
77520;SDS011;66633;47.628;19.158;2023-09-19T02:23:11;10.73;;;7.22;;
77520;SDS011;66633;47.628;19.158;2023-09-19T02:25:38;9.85;;;7.47;;
77520;SDS011;66633;47.628;19.158;2023-09-19T02:28:05;12.25;;;8.23;;
77520;SDS011;66633;47.628;19.158;2023-09-19T02:30:31;11.45;;;7.63;;
77520;SDS011;66633;47.628;19.158;2023-09-19T02:32:58;11.35;;;7.82;;
77520;SDS011;66633;47.628;19.158;2023-09-19T02:35:28;11.60;;;7.82;;
77520;SDS011;66633;47.628;19.158;2023-09-19T02:38:00;12.25;;;9.43;;
77520;SDS011;66633;47.628;19.158;2023-09-19T02:40:26;12.68;;;7.95;;
77520;SDS011;66633;47.628;19.158;2023-09-19T02:42:55;12.20;;;8.70;;
77520;SDS011;66633;47.628;19.158;2023-09-19T02:45:24;10.20;;;7.82;;
77520;SDS011;66633;47.628;19.158;2023-09-19T02:47:50;13.02;;;8.05;;
77520;SDS011;66633;47.628;19.158;2023-09-19T02:50:16;11.45;;;7.75;;
77520;SDS011;66633;47.628;19.158;2023-09-19T02:52:43;11.98;;;8.07;;
77520;SDS011;66633;47.628;19.158;2023-09-19T02:55:09;11.13;;;8.18;;
77520;SDS011;66633;47.628;19.158;2023-09-19T02:57:36;11.35;;;7.63;;
77520;SDS011;66633;47.628;19.158;2023-09-19T03:00:06;10.80;;;7.53;;
77520;SDS011;66633;47.628;19.158;2023-09-19T03:02:33;11.15;;;7.30;;
77520;SDS011;66633;47.628;19.158;2023-09-19T03:04:59;9.90;;;7.60;;
77520;SDS011;66633;47.628;19.158;2023-09-19T03:07:28;12.93;;;7.55;;
77520;SDS011;66633;47.628;19.158;2023-09-19T03:12:25;11.68;;;7.22;;
77520;SDS011;66633;47.628;19.158;2023-09-19T03:14:56;11.43;;;7.97;;
77520;SDS011;66633;47.628;19.158;2023-09-19T03:17:29;11.52;;;7.50;;
77520;SDS011;66633;47.628;19.158;2023-09-19T03:19:59;12.90;;;8.05;;
77520;SDS011;66633;47.628;19.158;2023-09-19T03:22:33;10.38;;;7.38;;
77520;SDS011;66633;47.628;19.158;2023-09-19T03:25:00;14.00;;;8.50;;
77520;SDS011;66633;47.628;19.158;2023-09-19T03:27:35;11.98;;;7.82;;
77520;SDS011;66633;47.628;19.158;2023-09-19T03:30:06;13.48;;;8.02;;
77520;SDS011;66633;47.628;19.158;2023-09-19T03:32:43;12.68;;;9.13;;
77520;SDS011;66633;47.628;19.158;2023-09-19T03:35:13;10.10;;;7.68;;
77520;SDS011;66633;47.628;19.158;2023-09-19T03:37:41;12.18;;;8.23;;
77520;SDS011;66633;47.628;19.158;2023-09-19T03:40:09;12.93;;;8.48;;
77520;SDS011;66633;47.628;19.158;2023-09-19T03:42:40;11.95;;;7.93;;
77520;SDS011;66633;47.628;19.158;2023-09-19T03:45:26;11.75;;;8.88;;
77520;SDS011;66633;47.628;19.158;2023-09-19T03:47:59;13.02;;;9.32;;
77520;SDS011;66633;47.628;19.158;2023-09-19T03:53:00;13.88;;;9.77;;
77520;SDS011;66633;47.628;19.158;2023-09-19T03:55:29;13.68;;;10.15;;
77520;SDS011;66633;47.628;19.158;2023-09-19T03:57:56;14.05;;;8.90;;
77520;SDS011;66633;47.628;19.158;2023-09-19T04:00:21;13.85;;;9.27;;
77520;SDS011;66633;47.628;19.158;2023-09-19T04:02:49;13.68;;;9.65;;
77520;SDS011;66633;47.628;19.158;2023-09-19T04:05:16;13.65;;;8.82;;
77520;SDS011;66633;47.628;19.158;2023-09-19T04:07:42;14.88;;;9.70;;
77520;SDS011;66633;47.628;19.158;2023-09-19T04:10:08;13.95;;;9.40;;
77520;SDS011;66633;47.628;19.158;2023-09-19T04:12:35;12.20;;;9.25;;
77520;SDS011;66633;47.628;19.158;2023-09-19T04:15:00;13.27;;;9.85;;
77520;SDS011;66633;47.628;19.158;2023-09-19T04:17:26;13.65;;;9.40;;
77520;SDS011;66633;47.628;19.158;2023-09-19T04:19:51;14.90;;;9.85;;
77520;SDS011;66633;47.628;19.158;2023-09-19T04:22:16;13.45;;;9.45;;
77520;SDS011;66633;47.628;19.158;2023-09-19T04:24:42;13.85;;;10.02;;
77520;SDS011;66633;47.628;19.158;2023-09-19T04:27:08;13.05;;;9.45;;
77520;SDS011;66633;47.628;19.158;2023-09-19T04:29:34;14.00;;;9.63;;
77520;SDS011;66633;47.628;19.158;2023-09-19T04:32:00;17.13;;;10.93;;
77520;SDS011;66633;47.628;19.158;2023-09-19T04:34:25;15.98;;;10.68;;
77520;SDS011;66633;47.628;19.158;2023-09-19T04:36:52;13.30;;;9.38;;
77520;SDS011;66633;47.628;19.158;2023-09-19T04:39:18;12.15;;;7.78;;
77520;SDS011;66633;47.628;19.158;2023-09-19T04:41:43;11.15;;;6.18;;
77520;SDS011;66633;47.628;19.158;2023-09-19T04:44:10;10.75;;;6.35;;
77520;SDS011;66633;47.628;19.158;2023-09-19T04:46:35;9.18;;;5.05;;
77520;SDS011;66633;47.628;19.158;2023-09-19T04:49:01;10.55;;;5.10;;
77520;SDS011;66633;47.628;19.158;2023-09-19T04:51:27;9.88;;;5.03;;
77520;SDS011;66633;47.628;19.158;2023-09-19T04:53:57;8.70;;;4.00;;
77520;SDS011;66633;47.628;19.158;2023-09-19T04:56:23;9.43;;;4.57;;
77520;SDS011;66633;47.628;19.158;2023-09-19T04:58:49;7.20;;;3.55;;
77520;SDS011;66633;47.628;19.158;2023-09-19T05:01:14;8.65;;;3.55;;
77520;SDS011;66633;47.628;19.158;2023-09-19T05:03:40;6.95;;;3.50;;
77520;SDS011;66633;47.628;19.158;2023-09-19T05:06:05;8.50;;;2.90;;
77520;SDS011;66633;47.628;19.158;2023-09-19T05:08:31;9.27;;;2.90;;
77520;SDS011;66633;47.628;19.158;2023-09-19T05:10:56;7.22;;;2.50;;
77520;SDS011;66633;47.628;19.158;2023-09-19T05:13:21;7.68;;;2.50;;
77520;SDS011;66633;47.628;19.158;2023-09-19T05:15:48;6.22;;;2.30;;
77520;SDS011;66633;47.628;19.158;2023-09-19T05:18:15;5.70;;;1.90;;
77520;SDS011;66633;47.628;19.158;2023-09-19T05:20:40;6.93;;;1.92;;
77520;SDS011;66633;47.628;19.158;2023-09-19T05:23:07;5.97;;;2.45;;
77520;SDS011;66633;47.628;19.158;2023-09-19T05:25:38;4.70;;;1.90;;
77520;SDS011;66633;47.628;19.158;2023-09-19T05:28:08;4.63;;;1.98;;
77520;SDS011;66633;47.628;19.158;2023-09-19T05:30:36;5.28;;;1.92;;
77520;SDS011;66633;47.628;19.158;2023-09-19T05:33:03;7.57;;;2.17;;
77520;SDS011;66633;47.628;19.158;2023-09-19T05:35:29;5.13;;;2.03;;
77520;SDS011;66633;47.628;19.158;2023-09-19T05:37:56;3.67;;;1.70;;
77520;SDS011;66633;47.628;19.158;2023-09-19T05:40:23;4.38;;;1.80;;
77520;SDS011;66633;47.628;19.158;2023-09-19T05:42:49;5.55;;;1.75;;
77520;SDS011;66633;47.628;19.158;2023-09-19T05:45:15;3.83;;;1.73;;
77520;SDS011;66633;47.628;19.158;2023-09-19T05:47:47;2.50;;;1.40;;
77520;SDS011;66633;47.628;19.158;2023-09-19T05:50:13;3.38;;;1.70;;
77520;SDS011;66633;47.628;19.158;2023-09-19T05:52:39;5.35;;;2.30;;
77520;SDS011;66633;47.628;19.158;2023-09-19T05:55:06;4.32;;;1.88;;
77520;SDS011;66633;47.628;19.158;2023-09-19T05:57:35;3.15;;;1.77;;
77520;SDS011;66633;47.628;19.158;2023-09-19T06:00:04;4.32;;;1.88;;
77520;SDS011;66633;47.628;19.158;2023-09-19T06:02:35;3.45;;;1.60;;
77520;SDS011;66633;47.628;19.158;2023-09-19T06:05:01;2.90;;;1.40;;
77520;SDS011;66633;47.628;19.158;2023-09-19T06:07:26;4.13;;;1.40;;
77520;SDS011;66633;47.628;19.158;2023-09-19T06:10:01;3.83;;;1.40;;
77520;SDS011;66633;47.628;19.158;2023-09-19T06:12:27;3.92;;;1.55;;
77520;SDS011;66633;47.628;19.158;2023-09-19T06:14:53;2.47;;;1.13;;
77520;SDS011;66633;47.628;19.158;2023-09-19T06:17:19;2.63;;;1.30;;
77520;SDS011;66633;47.628;19.158;2023-09-19T06:19:44;3.42;;;1.30;;
77520;SDS011;66633;47.628;19.158;2023-09-19T06:22:14;2.63;;;1.20;;
77520;SDS011;66633;47.628;19.158;2023-09-19T06:24:43;2.78;;;1.30;;
77520;SDS011;66633;47.628;19.158;2023-09-19T06:27:08;2.97;;;1.20;;
77520;SDS011;66633;47.628;19.158;2023-09-19T06:29:34;3.38;;;1.27;;
77520;SDS011;66633;47.628;19.158;2023-09-19T06:31:59;3.30;;;1.20;;
77520;SDS011;66633;47.628;19.158;2023-09-19T06:34:24;3.17;;;1.30;;
77520;SDS011;66633;47.628;19.158;2023-09-19T06:36:51;3.83;;;1.50;;
77520;SDS011;66633;47.628;19.158;2023-09-19T06:39:16;3.03;;;1.20;;
77520;SDS011;66633;47.628;19.158;2023-09-19T06:41:42;5.07;;;1.38;;
77520;SDS011;66633;47.628;19.158;2023-09-19T06:44:07;4.75;;;1.30;;
77520;SDS011;66633;47.628;19.158;2023-09-19T06:46:34;2.63;;;1.27;;
77520;SDS011;66633;47.628;19.158;2023-09-19T06:49:03;2.97;;;1.40;;
77520;SDS011;66633;47.628;19.158;2023-09-19T06:51:31;3.45;;;1.20;;
77520;SDS011;66633;47.628;19.158;2023-09-19T06:53:57;3.63;;;1.42;;
77520;SDS011;66633;47.628;19.158;2023-09-19T06:56:23;2.47;;;1.40;;
77520;SDS011;66633;47.628;19.158;2023-09-19T06:58:50;2.85;;;1.50;;
77520;SDS011;66633;47.628;19.158;2023-09-19T07:01:15;3.53;;;1.75;;
77520;SDS011;66633;47.628;19.158;2023-09-19T07:03:40;4.15;;;1.60;;
77520;SDS011;66633;47.628;19.158;2023-09-19T07:06:06;3.22;;;1.60;;
77520;SDS011;66633;47.628;19.158;2023-09-19T07:08:33;3.55;;;1.50;;
77520;SDS011;66633;47.628;19.158;2023-09-19T07:10:59;3.05;;;1.50;;
77520;SDS011;66633;47.628;19.158;2023-09-19T07:13:24;2.83;;;1.23;;
77520;SDS011;66633;47.628;19.158;2023-09-19T07:15:50;2.97;;;1.40;;
77520;SDS011;66633;47.628;19.158;2023-09-19T07:18:16;3.47;;;1.70;;
77520;SDS011;66633;47.628;19.158;2023-09-19T07:20:42;3.47;;;1.27;;
77520;SDS011;66633;47.628;19.158;2023-09-19T07:23:11;2.65;;;1.10;;
77520;SDS011;66633;47.628;19.158;2023-09-19T07:25:39;3.25;;;1.10;;
77520;SDS011;66633;47.628;19.158;2023-09-19T07:28:06;3.22;;;1.42;;
77520;SDS011;66633;47.628;19.158;2023-09-19T07:30:31;2.30;;;1.10;;
77520;SDS011;66633;47.628;19.158;2023-09-19T07:33:02;2.35;;;1.20;;
77520;SDS011;66633;47.628;19.158;2023-09-19T07:35:29;3.05;;;1.27;;
77520;SDS011;66633;47.628;19.158;2023-09-19T07:37:58;2.60;;;1.10;;
77520;SDS011;66633;47.628;19.158;2023-09-19T07:40:26;1.42;;;0.93;;
77520;SDS011;66633;47.628;19.158;2023-09-19T07:42:54;1.60;;;0.95;;
77520;SDS011;66633;47.628;19.158;2023-09-19T07:45:21;2.88;;;1.00;;
77520;SDS011;66633;47.628;19.158;2023-09-19T07:47:48;2.85;;;1.10;;
77520;SDS011;66633;47.628;19.158;2023-09-19T07:50:16;1.30;;;0.80;;
77520;SDS011;66633;47.628;19.158;2023-09-19T07:52:44;3.63;;;0.93;;
77520;SDS011;66633;47.628;19.158;2023-09-19T07:55:11;2.88;;;1.00;;
77520;SDS011;66633;47.628;19.158;2023-09-19T07:57:40;2.17;;;1.10;;
77520;SDS011;66633;47.628;19.158;2023-09-19T08:00:07;2.22;;;1.08;;
77520;SDS011;66633;47.628;19.158;2023-09-19T08:02:35;2.95;;;1.20;;
77520;SDS011;66633;47.628;19.158;2023-09-19T08:05:03;2.88;;;1.00;;
77520;SDS011;66633;47.628;19.158;2023-09-19T08:07:31;2.55;;;1.00;;
77520;SDS011;66633;47.628;19.158;2023-09-19T08:09:57;1.75;;;1.13;;
77520;SDS011;66633;47.628;19.158;2023-09-19T08:12:23;2.15;;;1.13;;
77520;SDS011;66633;47.628;19.158;2023-09-19T08:14:49;4.00;;;1.13;;
77520;SDS011;66633;47.628;19.158;2023-09-19T08:17:15;4.10;;;1.40;;
77520;SDS011;66633;47.628;19.158;2023-09-19T08:19:40;3.45;;;1.48;;
77520;SDS011;66633;47.628;19.158;2023-09-19T08:22:07;4.35;;;1.40;;
77520;SDS011;66633;47.628;19.158;2023-09-19T08:24:35;3.83;;;1.38;;
77520;SDS011;66633;47.628;19.158;2023-09-19T08:27:00;3.28;;;1.60;;
77520;SDS011;66633;47.628;19.158;2023-09-19T08:29:29;3.92;;;1.38;;
77520;SDS011;66633;47.628;19.158;2023-09-19T08:31:58;4.38;;;1.30;;
77520;SDS011;66633;47.628;19.158;2023-09-19T08:34:24;3.42;;;1.35;;
77520;SDS011;66633;47.628;19.158;2023-09-19T08:36:53;4.03;;;1.40;;
77520;SDS011;66633;47.628;19.158;2023-09-19T08:39:23;3.28;;;1.50;;
77520;SDS011;66633;47.628;19.158;2023-09-19T08:41:49;4.55;;;1.55;;
77520;SDS011;66633;47.628;19.158;2023-09-19T08:44:14;3.83;;;1.70;;
77520;SDS011;66633;47.628;19.158;2023-09-19T08:46:41;4.32;;;1.77;;
77520;SDS011;66633;47.628;19.158;2023-09-19T08:49:33;3.47;;;1.65;;
77520;SDS011;66633;47.628;19.158;2023-09-19T08:55:06;6.63;;;2.13;;
77520;SDS011;66633;47.628;19.158;2023-09-19T08:57:35;5.05;;;1.95;;
77520;SDS011;66633;47.628;19.158;2023-09-19T09:00:07;5.72;;;2.08;;
77520;SDS011;66633;47.628;19.158;2023-09-19T09:02:39;5.50;;;2.15;;
77520;SDS011;66633;47.628;19.158;2023-09-19T09:05:07;6.43;;;2.17;;
77520;SDS011;66633;47.628;19.158;2023-09-19T09:07:34;4.70;;;2.20;;
77520;SDS011;66633;47.628;19.158;2023-09-19T09:10:05;5.28;;;1.80;;
77520;SDS011;66633;47.628;19.158;2023-09-19T09:12:31;5.32;;;2.10;;
77520;SDS011;66633;47.628;19.158;2023-09-19T09:14:56;4.50;;;2.05;;
77520;SDS011;66633;47.628;19.158;2023-09-19T09:17:25;5.38;;;2.40;;
77520;SDS011;66633;47.628;19.158;2023-09-19T09:19:54;6.50;;;2.22;;
77520;SDS011;66633;47.628;19.158;2023-09-19T09:22:20;5.10;;;2.10;;
77520;SDS011;66633;47.628;19.158;2023-09-19T09:24:53;5.38;;;2.08;;
77520;SDS011;66633;47.628;19.158;2023-09-19T09:27:20;4.72;;;2.00;;
77520;SDS011;66633;47.628;19.158;2023-09-19T09:29:49;3.88;;;1.75;;
77520;SDS011;66633;47.628;19.158;2023-09-19T09:32:19;5.30;;;2.00;;
77520;SDS011;66633;47.628;19.158;2023-09-19T09:34:49;4.90;;;1.85;;
77520;SDS011;66633;47.628;19.158;2023-09-19T09:37:19;5.38;;;2.30;;
77520;SDS011;66633;47.628;19.158;2023-09-19T09:40:00;4.28;;;1.80;;
77520;SDS011;66633;47.628;19.158;2023-09-19T09:42:57;5.55;;;2.20;;
77520;SDS011;66633;47.628;19.158;2023-09-19T09:45:25;5.97;;;2.03;;
77520;SDS011;66633;47.628;19.158;2023-09-19T09:48:02;4.60;;;2.15;;
77520;SDS011;66633;47.628;19.158;2023-09-19T09:50:33;3.72;;;1.73;;
77520;SDS011;66633;47.628;19.158;2023-09-19T09:53:25;5.63;;;1.90;;
77520;SDS011;66633;47.628;19.158;2023-09-19T09:58:24;6.18;;;2.67;;
77520;SDS011;66633;47.628;19.158;2023-09-19T10:00:57;5.97;;;2.00;;
77520;SDS011;66633;47.628;19.158;2023-09-19T10:03:35;4.95;;;2.15;;
77520;SDS011;66633;47.628;19.158;2023-09-19T10:06:13;5.65;;;2.30;;
77520;SDS011;66633;47.628;19.158;2023-09-19T10:11:42;6.78;;;2.30;;
77520;SDS011;66633;47.628;19.158;2023-09-19T10:14:13;5.95;;;2.10;;
77520;SDS011;66633;47.628;19.158;2023-09-19T10:16:50;5.82;;;2.00;;
77520;SDS011;66633;47.628;19.158;2023-09-19T10:19:39;4.47;;;2.20;;
77520;SDS011;66633;47.628;19.158;2023-09-19T10:22:11;4.80;;;1.98;;
77520;SDS011;66633;47.628;19.158;2023-09-19T10:24:39;4.40;;;1.90;;
77520;SDS011;66633;47.628;19.158;2023-09-19T10:27:06;5.43;;;2.03;;
77520;SDS011;66633;47.628;19.158;2023-09-19T10:29:36;5.57;;;1.90;;
77520;SDS011;66633;47.628;19.158;2023-09-19T10:32:04;6.20;;;2.50;;
77520;SDS011;66633;47.628;19.158;2023-09-19T10:34:34;6.63;;;2.03;;
77520;SDS011;66633;47.628;19.158;2023-09-19T10:37:01;4.95;;;1.95;;
77520;SDS011;66633;47.628;19.158;2023-09-19T10:39:30;4.78;;;2.00;;
77520;SDS011;66633;47.628;19.158;2023-09-19T10:41:57;5.57;;;1.77;;
77520;SDS011;66633;47.628;19.158;2023-09-19T10:44:30;5.28;;;1.75;;
77520;SDS011;66633;47.628;19.158;2023-09-19T10:46:57;4.65;;;2.08;;
77520;SDS011;66633;47.628;19.158;2023-09-19T10:49:23;4.63;;;1.73;;
77520;SDS011;66633;47.628;19.158;2023-09-19T10:51:51;3.85;;;1.90;;
77520;SDS011;66633;47.628;19.158;2023-09-19T10:54:21;5.00;;;1.90;;
77520;SDS011;66633;47.628;19.158;2023-09-19T10:56:52;4.70;;;2.10;;
77520;SDS011;66633;47.628;19.158;2023-09-19T10:59:19;5.13;;;2.60;;
77520;SDS011;66633;47.628;19.158;2023-09-19T11:09:52;7.25;;;4.07;;
77520;SDS011;66633;47.628;19.158;2023-09-19T11:15:11;7.75;;;4.80;;
77520;SDS011;66633;47.628;19.158;2023-09-19T11:26:44;7.20;;;4.13;;
77520;SDS011;66633;47.628;19.158;2023-09-19T11:29:28;5.70;;;3.80;;
77520;SDS011;66633;47.628;19.158;2023-09-19T11:31:58;6.13;;;3.60;;
77520;SDS011;66633;47.628;19.158;2023-09-19T11:39:37;5.40;;;2.30;;
77520;SDS011;66633;47.628;19.158;2023-09-19T11:48:11;5.30;;;2.15;;
77520;SDS011;66633;47.628;19.158;2023-09-19T11:50:44;5.05;;;2.47;;
77520;SDS011;66633;47.628;19.158;2023-09-19T11:53:13;7.05;;;2.20;;
77520;SDS011;66633;47.628;19.158;2023-09-19T11:55:42;3.90;;;1.50;;
77520;SDS011;66633;47.628;19.158;2023-09-19T11:58:08;4.90;;;2.05;;
77520;SDS011;66633;47.628;19.158;2023-09-19T12:00:34;4.72;;;1.60;;
77520;SDS011;66633;47.628;19.158;2023-09-19T12:03:09;4.57;;;1.90;;
77520;SDS011;66633;47.628;19.158;2023-09-19T12:05:36;3.83;;;1.60;;
77520;SDS011;66633;47.628;19.158;2023-09-19T12:08:02;4.22;;;1.67;;
77520;SDS011;66633;47.628;19.158;2023-09-19T12:10:32;4.57;;;1.55;;
77520;SDS011;66633;47.628;19.158;2023-09-19T12:12:58;6.45;;;1.90;;
77520;SDS011;66633;47.628;19.158;2023-09-19T12:15:28;4.43;;;1.80;;
77520;SDS011;66633;47.628;19.158;2023-09-19T12:17:59;4.85;;;1.60;;
77520;SDS011;66633;47.628;19.158;2023-09-19T12:20:25;5.13;;;1.77;;
77520;SDS011;66633;47.628;19.158;2023-09-19T12:23:12;4.03;;;1.50;;
77520;SDS011;66633;47.628;19.158;2023-09-19T12:25:42;4.10;;;1.73;;
77520;SDS011;66633;47.628;19.158;2023-09-19T12:28:12;5.20;;;2.15;;
77520;SDS011;66633;47.628;19.158;2023-09-19T12:30:39;3.65;;;1.65;;
77520;SDS011;66633;47.628;19.158;2023-09-19T12:33:16;4.45;;;1.95;;
77520;SDS011;66633;47.628;19.158;2023-09-19T12:35:44;5.53;;;1.70;;
77520;SDS011;66633;47.628;19.158;2023-09-19T12:38:10;3.85;;;1.80;;
77520;SDS011;66633;47.628;19.158;2023-09-19T12:40:39;4.25;;;1.80;;
77520;SDS011;66633;47.628;19.158;2023-09-19T12:46:29;4.75;;;2.17;;
77520;SDS011;66633;47.628;19.158;2023-09-19T12:49:16;5.88;;;2.53;;
77520;SDS011;66633;47.628;19.158;2023-09-19T12:51:43;5.75;;;2.50;;
77520;SDS011;66633;47.628;19.158;2023-09-19T12:54:40;4.25;;;2.42;;
77520;SDS011;66633;47.628;19.158;2023-09-19T12:57:08;5.72;;;2.15;;
77520;SDS011;66633;47.628;19.158;2023-09-19T12:59:51;4.95;;;2.60;;
77520;SDS011;66633;47.628;19.158;2023-09-19T13:02:17;5.63;;;2.38;;
77520;SDS011;66633;47.628;19.158;2023-09-19T13:04:52;5.43;;;2.70;;
77520;SDS011;66633;47.628;19.158;2023-09-19T13:10:10;6.35;;;2.63;;
77520;SDS011;66633;47.628;19.158;2023-09-19T13:12:39;4.85;;;2.70;;
77520;SDS011;66633;47.628;19.158;2023-09-19T13:15:10;4.90;;;3.05;;
77520;SDS011;66633;47.628;19.158;2023-09-19T13:17:46;5.72;;;2.80;;
77520;SDS011;66633;47.628;19.158;2023-09-19T13:22:52;5.32;;;2.65;;
77520;SDS011;66633;47.628;19.158;2023-09-19T13:25:20;5.32;;;2.72;;
77520;SDS011;66633;47.628;19.158;2023-09-19T13:27:51;8.55;;;2.97;;
77520;SDS011;66633;47.628;19.158;2023-09-19T13:30:21;5.57;;;2.78;;
77520;SDS011;66633;47.628;19.158;2023-09-19T13:32:50;5.97;;;2.90;;
77520;SDS011;66633;47.628;19.158;2023-09-19T13:35:16;4.97;;;2.38;;
77520;SDS011;66633;47.628;19.158;2023-09-19T13:37:42;5.65;;;2.67;;
77520;SDS011;66633;47.628;19.158;2023-09-19T13:40:08;5.30;;;2.40;;
77520;SDS011;66633;47.628;19.158;2023-09-19T13:42:35;6.25;;;2.58;;
77520;SDS011;66633;47.628;19.158;2023-09-19T13:45:02;4.90;;;2.72;;
77520;SDS011;66633;47.628;19.158;2023-09-19T13:47:30;5.07;;;2.25;;
77520;SDS011;66633;47.628;19.158;2023-09-19T13:49:57;5.55;;;2.50;;
77520;SDS011;66633;47.628;19.158;2023-09-19T13:52:23;7.00;;;2.80;;
77520;SDS011;66633;47.628;19.158;2023-09-19T13:54:49;4.72;;;2.40;;
77520;SDS011;66633;47.628;19.158;2023-09-19T13:57:15;5.90;;;2.60;;
77520;SDS011;66633;47.628;19.158;2023-09-19T13:59:41;5.32;;;2.35;;
77520;SDS011;66633;47.628;19.158;2023-09-19T14:02:07;5.28;;;2.30;;
77520;SDS011;66633;47.628;19.158;2023-09-19T14:04:33;4.88;;;2.50;;
77520;SDS011;66633;47.628;19.158;2023-09-19T14:07:01;6.07;;;2.28;;
77520;SDS011;66633;47.628;19.158;2023-09-19T14:09:28;5.45;;;2.47;;
77520;SDS011;66633;47.628;19.158;2023-09-19T14:11:54;6.00;;;2.70;;
77520;SDS011;66633;47.628;19.158;2023-09-19T14:14:20;4.35;;;2.47;;
77520;SDS011;66633;47.628;19.158;2023-09-19T14:16:46;5.50;;;2.60;;
77520;SDS011;66633;47.628;19.158;2023-09-19T14:19:12;4.43;;;1.92;;
77520;SDS011;66633;47.628;19.158;2023-09-19T14:21:39;5.53;;;2.75;;
77520;SDS011;66633;47.628;19.158;2023-09-19T14:24:04;5.80;;;2.60;;
77520;SDS011;66633;47.628;19.158;2023-09-19T14:28:59;7.13;;;2.95;;
77520;SDS011;66633;47.628;19.158;2023-09-19T14:31:25;3.80;;;2.03;;
77520;SDS011;66633;47.628;19.158;2023-09-19T14:33:53;6.35;;;2.67;;
77520;SDS011;66633;47.628;19.158;2023-09-19T14:36:21;5.25;;;2.30;;
77520;SDS011;66633;47.628;19.158;2023-09-19T14:38:47;4.60;;;2.10;;
77520;SDS011;66633;47.628;19.158;2023-09-19T14:41:13;4.40;;;2.53;;
77520;SDS011;66633;47.628;19.158;2023-09-19T14:43:38;4.32;;;2.30;;
77520;SDS011;66633;47.628;19.158;2023-09-19T14:48:30;6.07;;;2.70;;
77520;SDS011;66633;47.628;19.158;2023-09-19T14:50:55;6.78;;;2.40;;
77520;SDS011;66633;47.628;19.158;2023-09-19T14:53:27;5.60;;;2.10;;
77520;SDS011;66633;47.628;19.158;2023-09-19T14:55:54;6.30;;;2.63;;
77520;SDS011;66633;47.628;19.158;2023-09-19T14:58:20;6.20;;;2.30;;
77520;SDS011;66633;47.628;19.158;2023-09-19T15:00:46;4.88;;;2.30;;
77520;SDS011;66633;47.628;19.158;2023-09-19T15:03:11;5.20;;;2.33;;
77520;SDS011;66633;47.628;19.158;2023-09-19T15:05:38;6.93;;;2.10;;
77520;SDS011;66633;47.628;19.158;2023-09-19T15:08:04;5.47;;;2.15;;
77520;SDS011;66633;47.628;19.158;2023-09-19T15:10:31;5.43;;;1.90;;
77520;SDS011;66633;47.628;19.158;2023-09-19T15:12:57;5.47;;;1.98;;
77520;SDS011;66633;47.628;19.158;2023-09-19T15:15:23;5.05;;;2.10;;
77520;SDS011;66633;47.628;19.158;2023-09-19T15:17:49;5.53;;;2.30;;
77520;SDS011;66633;47.628;19.158;2023-09-19T15:20:14;4.03;;;1.88;;
77520;SDS011;66633;47.628;19.158;2023-09-19T15:22:42;6.43;;;2.17;;
77520;SDS011;66633;47.628;19.158;2023-09-19T15:25:09;4.75;;;2.20;;
77520;SDS011;66633;47.628;19.158;2023-09-19T15:27:35;5.63;;;2.00;;
77520;SDS011;66633;47.628;19.158;2023-09-19T15:30:02;3.88;;;1.83;;
77520;SDS011;66633;47.628;19.158;2023-09-19T15:32:30;5.85;;;1.80;;
77520;SDS011;66633;47.628;19.158;2023-09-19T15:34:56;7.43;;;2.00;;
77520;SDS011;66633;47.628;19.158;2023-09-19T15:37:21;4.47;;;1.85;;
77520;SDS011;66633;47.628;19.158;2023-09-19T15:39:48;5.80;;;2.00;;
77520;SDS011;66633;47.628;19.158;2023-09-19T15:42:14;4.70;;;2.10;;
77520;SDS011;66633;47.628;19.158;2023-09-19T15:44:41;4.00;;;1.60;;
77520;SDS011;66633;47.628;19.158;2023-09-19T15:47:09;4.70;;;2.03;;
77520;SDS011;66633;47.628;19.158;2023-09-19T15:49:35;6.47;;;2.10;;